Flight Track Log - Related Links

Times and Time Zones

All times are in EDT time to prevent confusion due to time zone crossing. See the N3746H flight status page for this flight to view local times or setup timezone preferences in your user account.


Time Position Orientation Groundspeed Altitude Reporting Facility
EDT Latitude Longitude Course Direction KTS MPH feet Rate Location/Type
Mon 08:03:22 PM 39.0500 -84.7000 297° West 185 213 1,500  Level Cincinnati TRACON
Mon 08:04:28 PM 39.0500 -84.7833 270° West 236 272 3,400 2,524 Climbing Cincinnati TRACON
Mon 08:05:28 PM 39.0500 -84.8833 270° West 279 321 6,800 3,227 Climbing Cincinnati TRACON
Mon 08:06:00 PM 38.9621 -84.8597 311° West  Level FlightAware Approximate
Mon 08:06:40 PM 39.0583 -84.9981 275° West 275 316 10,500  Level Indianapolis Center
Mon 08:07:00 PM 39.0370 -84.9722 311° West  Level FlightAware Approximate
Mon 08:07:41 PM 39.0967 -85.1042 295° West 319 367 11,600  Level Indianapolis Center
Mon 08:08:00 PM 39.0903 -85.1008 297° West  Level FlightAware Approximate
Mon 08:08:43 PM 39.1447 -85.2283 297° West 378 435 13,900  Level Indianapolis Center
Mon 08:09:44 PM 39.1917 -85.3531 296° West 400 460 16,300 2,146 Climbing Indianapolis Center
Mon 08:10:46 PM 39.2539 -85.4767 303° West 409 471 18,300 2,049 Climbing Indianapolis Center
Mon 08:11:47 PM 39.3328 -85.5967 310° West 423 487 20,500 2,016 Climbing Indianapolis Center
Mon 08:12:48 PM 39.4075 -85.7169 309° West 428 493 22,400 1,707 Climbing Indianapolis Center
Mon 08:13:50 PM 39.4833 -85.8369 309° West 430 495 24,000 1,366 Climbing Indianapolis Center
Mon 08:14:51 PM 39.5322 -85.9808 294° West 444 511 25,200 1,854 Climbing Indianapolis Center
Mon 08:15:53 PM 39.5269 -86.1814 268° West 459 528 27,800 2,390 Climbing Indianapolis Center
Mon 08:16:54 PM 39.5225 -86.3333 268° West 429 494 30,100 1,918 Climbing Indianapolis Center
Mon 08:17:55 PM 39.5164 -86.4844 267° West 421 484 31,700 1,561 Climbing Indianapolis Center
Mon 08:18:57 PM 39.5114 -86.6319 268° West 414 476 33,300 1,415 Climbing Indianapolis Center
Mon 08:19:58 PM 39.5067 -86.7767 268° West 406 467 34,600 927 Climbing Indianapolis Center
Mon 08:21:00 PM 39.5008 -86.9233 267° West 408 470 35,200 634 Climbing Indianapolis Center
Mon 08:22:01 PM 39.4953 -87.0708 267° West 412 474 35,900 390 Climbing Indianapolis Center
Mon 08:23:03 PM 39.4889 -87.2206 267° West 416 479 36,000 49 Climbing Indianapolis Center
Mon 08:24:04 PM 39.5069 -87.3656 279° West 412 474 36,000  Level Indianapolis Center
Mon 08:25:06 PM 39.5292 -87.5097 281° West 408 470 36,000  Level Indianapolis Center
Mon 08:26:07 PM 39.5569 -87.6811 282° West 404 465 36,000  Level Indianapolis Center
Mon 08:27:09 PM 39.5853 -87.8208 285° West 402 463 36,000  Level Indianapolis Center
Mon 08:28:10 PM 39.6394 -87.9425 300° West 395 455 36,000  Level Indianapolis Center
Mon 08:29:11 PM 39.6950 -88.0656 300° West 394 453 36,000  Level Indianapolis Center
Mon 08:30:13 PM 39.7525 -88.1892 301° West 396 456 36,000  Level Indianapolis Center
Mon 08:31:14 PM 39.8100 -88.3156 301° West 400 460 36,000  Level Indianapolis Center
Mon 08:32:14 PM 39.8589 -88.4344 298° West 402 463 36,000  Level Kansas City Center
Mon 08:33:15 PM 39.9158 -88.5594 301° West 402 463 36,000  Level Kansas City Center
Mon 08:34:16 PM 39.9744 -88.6864 301° West 405 466 36,000  Level Kansas City Center
Mon 08:35:17 PM 40.0414 -88.8394 300° West 406 467 36,000  Level Kansas City Center
Mon 08:36:18 PM 40.0961 -88.9656 300° West 402 463 36,000  Level Kansas City Center
Mon 08:37:20 PM 40.1517 -89.0908 300° West 399 459 36,000  Level Kansas City Center
Mon 08:38:21 PM 40.2061 -89.2161 300° West 397 457 36,000  Level Kansas City Center
Mon 08:39:22 PM 40.2611 -89.3414 300° West 396 456 36,000  Level Kansas City Center
Mon 08:40:26 PM 40.3158 -89.4694 299° West 399 459 36,000  Level Kansas City Center
Mon 08:41:30 PM 40.3822 -89.6214 300° West 398 458 36,000  Level Chicago Center
Mon 08:42:32 PM 40.4375 -89.7514 299° West 402 463 36,000  Level Chicago Center
Mon 08:43:34 PM 40.4903 -89.8717 300° West 408 470 36,000  Level Chicago Center
Mon 08:44:36 PM 40.5450 -90.0011 299° West 408 470 36,000  Level Chicago Center
Mon 08:45:37 PM 40.6108 -90.1561 299° West 407 468 36,000  Level Chicago Center
Mon 08:46:39 PM 40.6625 -90.2806 299° West 411 473 36,000  Level Chicago Center
Mon 08:47:41 PM 40.7181 -90.4122 299° West 411 473 36,000  Level Chicago Center
Mon 08:48:42 PM 40.7742 -90.5433 300° West 411 473 36,000  Level Chicago Center
Mon 08:49:44 PM 40.8281 -90.6764 298° West 412 474 36,000  Level Chicago Center
Mon 08:50:46 PM 40.8828 -90.8081 299° West 410 472 36,000  Level Chicago Center
Mon 08:51:47 PM 40.9478 -90.9661 299° West 408 470 36,000  Level Chicago Center
Mon 08:52:49 PM 41.0014 -91.0981 298° West 407 468 36,000  Level Chicago Center
Mon 08:53:51 PM 41.0561 -91.2283 299° West 406 467 36,000  Level Chicago Center
Mon 08:54:53 PM 41.1094 -91.3581 299° West 403 464 36,000  Level Chicago Center
Mon 08:55:54 PM 41.1617 -91.4894 298° West 402 463 36,000  Level Chicago Center
Mon 08:56:56 PM 41.2139 -91.6181 298° West 399 459 36,000  Level Chicago Center
Mon 08:57:58 PM 41.2656 -91.7469 298° West 398 458 36,000  Level Chicago Center
Mon 08:58:59 PM 41.3275 -91.9014 298° West 398 458 36,000  Level Chicago Center
Mon 09:00:02 PM 41.3786 -92.0325 297° West 400 460 36,000  Level Chicago Center
Mon 09:01:04 PM 41.4308 -92.1631 298° West 402 463 36,000  Level Chicago Center
Mon 09:02:05 PM 41.4831 -92.2944 298° West 402 463 36,000  Level Chicago Center
Mon 09:03:07 PM 41.5347 -92.4278 297° West 404 465 36,000  Level Chicago Center
Mon 09:04:09 PM 41.5878 -92.5606 298° West 405 466 36,000  Level Chicago Center
Mon 09:04:47 PM 41.6267 -92.6636 297° West 408 470 36,000  Level Minneapolis Center
Mon 09:05:49 PM 41.6783 -92.7958 298° West 406 467 36,000  Level Minneapolis Center
Mon 09:06:50 PM 41.7289 -92.9281 297° West 405 466 36,000  Level Minneapolis Center
Mon 09:07:52 PM 41.7814 -93.0628 298° West 408 470 36,000  Level Minneapolis Center
Mon 09:08:54 PM 41.8419 -93.2225 297° West 406 467 36,000  Level Minneapolis Center
Mon 09:09:55 PM 41.8933 -93.3575 297° West 409 471 36,000  Level Minneapolis Center
Mon 09:10:57 PM 41.9478 -93.4989 297° West 405 466 36,000  Level Minneapolis Center
Mon 09:11:59 PM 41.9986 -93.6333 297° West 406 467 36,000  Level Minneapolis Center
Mon 09:13:00 PM 42.0483 -93.7686 296° West 408 470 36,000  Level Minneapolis Center
Mon 09:14:02 PM 42.1000 -93.9017 298° West 405 466 36,000  Level Minneapolis Center
Mon 09:15:03 PM 42.1506 -94.0383 297° West 405 466 36,000  Level Minneapolis Center
Mon 09:16:05 PM 42.2019 -94.1742 297° West 408 470 36,000  Level Minneapolis Center
Mon 09:17:07 PM 42.2614 -94.3394 296° West 409 471 36,000  Level Minneapolis Center
Mon 09:18:08 PM 42.3117 -94.4778 296° West 411 473 36,000  Level Minneapolis Center
Mon 09:19:10 PM 42.3611 -94.6158 296° West 410 472 36,000  Level Minneapolis Center
Mon 09:20:12 PM 42.4111 -94.7539 296° West 411 473 36,000  Level Minneapolis Center
Mon 09:21:13 PM 42.4608 -94.8922 296° West 411 473 36,000  Level Minneapolis Center
Mon 09:22:15 PM 42.5106 -95.0297 296° West 409 471 36,000  Level Minneapolis Center
Mon 09:23:17 PM 42.5592 -95.1672 296° West 407 468 36,000  Level Minneapolis Center
Mon 09:24:18 PM 42.6172 -95.3325 296° West 406 467 36,000  Level Minneapolis Center
Mon 09:25:20 PM 42.6667 -95.4700 296° West 406 467 36,000  Level Minneapolis Center
Mon 09:26:21 PM 42.7161 -95.6069 296° West 405 466 36,000  Level Minneapolis Center
Mon 09:27:23 PM 42.7589 -95.7317 295° West 403 464 36,000  Level Minneapolis Center
Mon 09:28:25 PM 42.8158 -95.8961 295° West 402 463 36,000  Level Minneapolis Center
Mon 09:29:26 PM 42.8639 -96.0358 295° West 405 466 36,000  Level Minneapolis Center
Mon 09:30:28 PM 42.9125 -96.1756 295° West 407 468 36,000  Level Minneapolis Center
Mon 09:31:30 PM 42.9606 -96.3167 295° West 410 472 36,000  Level Minneapolis Center
Mon 09:32:31 PM 43.0092 -96.4575 295° West 409 471 36,000  Level Minneapolis Center
Mon 09:33:33 PM 43.0561 -96.5989 294° West 409 471 36,000  Level Minneapolis Center
Mon 09:34:35 PM 43.1047 -96.7425 295° West 412 474 36,000  Level Minneapolis Center
Mon 09:35:36 PM 43.1525 -96.8847 295° West 413 475 36,000  Level Minneapolis Center
Mon 09:36:38 PM 43.2097 -97.0553 295° West 411 473 36,000  Level Minneapolis Center
Mon 09:37:39 PM 43.2569 -97.1975 295° West 411 473 36,000  Level Minneapolis Center
Mon 09:38:41 PM 43.3039 -97.3403 294° West 411 473 36,000  Level Minneapolis Center
Mon 09:39:43 PM 43.3500 -97.4811 294° West 407 468 36,000  Level Minneapolis Center
Mon 09:40:44 PM 43.3961 -97.6219 294° West 404 465 36,000  Level Minneapolis Center
Mon 09:41:46 PM 43.4411 -97.7622 294° West 403 464 36,000  Level Minneapolis Center
Mon 09:42:47 PM 43.4867 -97.9044 294° West 405 466 36,000  Level Minneapolis Center
Mon 09:43:49 PM 43.5322 -98.0453 294° West 404 465 36,000  Level Minneapolis Center
Mon 09:44:50 PM 43.5864 -98.2150 294° West 404 465 36,000  Level Minneapolis Center
Mon 09:45:52 PM 43.6322 -98.3567 294° West 404 465 36,000  Level Minneapolis Center
Mon 09:46:53 PM 43.6761 -98.4969 293° West 401 461 36,000  Level Minneapolis Center
Mon 09:47:55 PM 43.7203 -98.6392 293° West 402 463 36,000  Level Minneapolis Center
Mon 09:48:56 PM 43.7653 -98.7814 294° West 401 461 36,000  Level Minneapolis Center
Mon 09:49:58 PM 43.8106 -98.9233 294° West 402 463 36,000  Level Minneapolis Center
Mon 09:50:59 PM 43.8550 -99.0714 293° West 412 474 36,000  Level Minneapolis Center
Mon 09:52:01 PM 43.8981 -99.2169 292° West 409 471 36,000  Level Minneapolis Center
Mon 09:53:03 PM 43.9433 -99.3617 294° West 409 471 36,000  Level Minneapolis Center
Mon 09:54:04 PM 43.9961 -99.5381 293° West 411 473 36,000  Level Minneapolis Center
Mon 09:55:06 PM 44.0403 -99.6836 293° West 409 471 36,000  Level Minneapolis Center
Mon 09:56:07 PM 44.0836 -99.8306 292° West 409 471 36,000  Level Minneapolis Center
Mon 09:57:09 PM 44.1275 -99.9764 293° West 409 471 36,000  Level Minneapolis Center
Mon 09:58:10 PM 44.1706 -100.1214 293° West 406 467 36,000  Level Minneapolis Center
Mon 09:59:12 PM 44.2133 -100.2686 292° West 407 468 36,000  Level Minneapolis Center
Mon 10:00:13 PM 44.2569 -100.4153 293° West 408 470 36,000  Level Minneapolis Center
Mon 10:01:48 PM 44.3236 -100.6492 292° West 407 468 36,000  Level Denver Center
Mon 10:02:04 PM 44.3333 -100.6803 294° West 409 471 36,000  Level Minneapolis Center
Mon 10:03:05 PM 44.3764 -100.8294 292° West 411 473 36,000  Level Minneapolis Center
Mon 10:04:07 PM 44.4267 -101.0086 292° West 412 474 36,000  Level Minneapolis Center
Mon 10:05:09 PM 44.4703 -101.1581 292° West 412 474 36,000  Level Minneapolis Center
Mon 10:06:10 PM 44.5122 -101.3075 292° West 412 474 36,000  Level Minneapolis Center
Mon 10:07:12 PM 44.5553 -101.4583 292° West 413 475 36,000  Level Minneapolis Center
Mon 10:08:13 PM 44.5997 -101.6089 293° West 415 478 36,000  Level Minneapolis Center
Mon 10:09:15 PM 44.6406 -101.7581 291° West 412 474 36,000  Level Minneapolis Center
Mon 10:10:16 PM 44.6811 -101.9086 291° West 411 473 36,000  Level Minneapolis Center
Mon 10:11:18 PM 44.7233 -102.0603 291° West 414 476 36,000  Level Minneapolis Center
Mon 10:12:03 PM 44.7536 -102.1797 290° West 413 475 36,000  Level Denver Center
Mon 10:13:42 PM 44.8192 -102.4242 291° West 417 480 36,000  Level Denver Center
Mon 10:14:43 PM 44.8606 -102.5753 291° West 416 479 36,000  Level Denver Center
Mon 10:14:59 PM 44.8792 -102.6361 293° West 414 476 36,000  Level Minneapolis Center
Mon 10:16:01 PM 44.9189 -102.7886 290° West 414 476 36,000  Level Minneapolis Center
Mon 10:17:02 PM 44.9597 -102.9369 291° West 409 471 36,000  Level Minneapolis Center
Mon 10:18:04 PM 44.9992 -103.0903 290° West 412 474 36,000  Level Minneapolis Center
Mon 10:18:20 PM 45.0117 -103.1444 288° West 410 472 36,000  Level Salt Lake Center
Mon 10:19:22 PM 45.0497 -103.2889 290° West 409 471 36,000  Level Salt Lake Center
Mon 10:20:23 PM 45.0872 -103.4353 290° West 413 475 36,000  Level Salt Lake Center
Mon 10:21:24 PM 45.1314 -103.6061 290° West 414 476 36,000  Level Salt Lake Center
Mon 10:22:26 PM 45.1700 -103.7531 290° West 417 480 36,000  Level Salt Lake Center
Mon 10:23:27 PM 45.2094 -103.9164 289° West 414 476 36,000  Level Salt Lake Center
Mon 10:24:28 PM 45.2486 -104.0717 290° West 418 481 36,000 -49 Level Salt Lake Center
Mon 10:25:30 PM 45.2883 -104.2258 290° West 416 479 35,900  Descending Salt Lake Center
Mon 10:26:31 PM 45.3267 -104.3831 289° West 420 483 36,000 49 Climbing Salt Lake Center
Mon 10:27:33 PM 45.3689 -104.5550 289° West 423 487 36,000  Level Salt Lake Center
Mon 10:28:34 PM 45.4058 -104.7061 289° West 423 487 36,000  Level Salt Lake Center
Mon 10:29:35 PM 45.4489 -104.8839 289° West 426 490 36,000  Level Salt Lake Center
Mon 10:30:37 PM 45.4861 -105.0361 289° West 426 490 36,000  Level Salt Lake Center
Mon 10:31:38 PM 45.5228 -105.1875 289° West 424 488 36,000  Level Salt Lake Center
Mon 10:33:00 PM 45.5731 -105.3955 289° West  Level FlightAware Approximate
Mon 10:33:41 PM 45.6000 -105.5172 289° West 423 487 36,000  Level Salt Lake Center
Mon 10:34:43 PM 45.6422 -105.6953 289° West 424 488 36,000  Level Salt Lake Center
Mon 10:35:44 PM 45.6769 -105.8469 288° West 421 484 36,000  Level Salt Lake Center
Mon 10:36:46 PM 45.7131 -106.0003 289° West 424 488 36,000  Level Salt Lake Center
Mon 10:37:47 PM 45.7506 -106.1767 287° West 418 481 36,000  Level Salt Lake Center
Mon 10:38:48 PM 45.7828 -106.3278 287° West 413 475 36,000  Level Salt Lake Center
Mon 10:39:50 PM 45.8244 -106.5089 288° West 421 484 36,000  Level Salt Lake Center
Mon 10:40:51 PM 45.8606 -106.6686 288° West 431 496 36,000  Level Salt Lake Center
Mon 10:41:53 PM 45.9036 -106.8558 288° West 439 505 36,000  Level Salt Lake Center
Mon 10:42:54 PM 45.9392 -107.0131 288° West 438 504 36,000  Level Salt Lake Center
Mon 10:43:56 PM 45.9750 -107.1753 288° West 441 507 36,000  Level Salt Lake Center
Mon 10:44:57 PM 46.0142 -107.3583 287° West 431 496 36,000  Level Salt Lake Center
Mon 10:45:59 PM 46.0483 -107.5158 287° West 431 496 36,000  Level Salt Lake Center
Mon 10:47:00 PM 46.0875 -107.7003 287° West 432 497 36,000  Level Salt Lake Center
Mon 10:48:02 PM 46.1211 -107.8592 287° West 434 499 36,000  Level Salt Lake Center
Mon 10:49:03 PM 46.1600 -108.0428 287° West 430 495 36,000  Level Salt Lake Center
Mon 10:50:05 PM 46.1925 -108.2014 287° West 431 496 36,000  Level Salt Lake Center
Mon 10:51:06 PM 46.2256 -108.3600 287° West 432 497 36,000  Level Salt Lake Center
Mon 10:52:08 PM 46.2631 -108.5481 286° West 438 504 36,000  Level Salt Lake Center
Mon 10:53:09 PM 46.2967 -108.7056 287° West 432 497 36,000  Level Salt Lake Center
Mon 10:54:11 PM 46.3331 -108.8903 286° West 429 494 36,000  Level Salt Lake Center
Mon 10:55:12 PM 46.3653 -109.0508 286° West 434 499 36,000  Level Salt Lake Center
Mon 10:56:13 PM 46.3978 -109.2114 286° West 435 501 36,000  Level Salt Lake Center
Mon 10:57:15 PM 46.4339 -109.4000 286° West 435 501 36,000  Level Salt Lake Center
Mon 10:58:16 PM 46.4650 -109.5656 285° West 443 510 36,000  Level Salt Lake Center
Mon 10:59:18 PM 46.5017 -109.7558 286° West 439 505 36,000  Level Salt Lake Center
Mon 11:00:19 PM 46.5322 -109.9181 285° West 435 501 36,000  Level Salt Lake Center
Mon 11:01:20 PM 46.5633 -110.0789 286° West 432 497 36,000  Level Salt Lake Center
Mon 11:02:22 PM 46.5983 -110.2689 285° West 434 499 36,000  Level Salt Lake Center
Mon 11:03:23 PM 46.6283 -110.4311 285° West 434 499 36,000 -49 Level Salt Lake Center
Mon 11:04:24 PM 46.6606 -110.6081 285° West 432 497 35,900  Descending Salt Lake Center
Mon 11:05:26 PM 46.6917 -110.7789 285° West 437 503 36,000 49 Climbing Salt Lake Center
Mon 11:06:27 PM 46.7233 -110.9475 285° West 433 498 36,000 -49 Level Salt Lake Center
Mon 11:07:29 PM 46.7522 -111.1183 284° West 434 499 35,900 -49 Descending Salt Lake Center
Mon 11:08:30 PM 46.7819 -111.2878 284° West 432 497 35,900  Level Salt Lake Center
Mon 11:09:31 PM 46.8122 -111.4575 285° West 432 497 35,900 49 Level Salt Lake Center
Mon 11:10:33 PM 46.8417 -111.6264 284° West 431 496 36,000  Climbing Salt Lake Center
Mon 11:11:34 PM 46.8706 -111.7972 284° West 431 496 35,900  Descending Salt Lake Center
Mon 11:12:35 PM 46.9053 -111.9997 284° West 429 494 36,000 49 Climbing Salt Lake Center
Mon 11:13:37 PM 46.9333 -112.1711 284° West 431 496 36,000 -49 Level Salt Lake Center
Mon 11:14:38 PM 46.9614 -112.3419 284° West 432 497 35,900  Descending Salt Lake Center
Mon 11:15:39 PM 46.9906 -112.5144 284° West 434 499 36,000  Climbing Salt Lake Center
Mon 11:16:40 PM 47.0197 -112.6908 284° West 442 509 35,900  Descending Salt Lake Center
Mon 11:17:42 PM 47.0478 -112.8622 284° West 437 503 36,000  Climbing Salt Lake Center
Mon 11:18:43 PM 47.0747 -113.0339 283° West 435 501 35,900  Descending Salt Lake Center
Mon 11:19:44 PM 47.1019 -113.2078 283° West 435 501 36,000  Climbing Salt Lake Center
Mon 11:20:45 PM 47.1281 -113.3817 283° West 437 503 35,900  Descending Salt Lake Center
Mon 11:21:47 PM 47.1553 -113.5539 283° West 434 499 36,000 49 Climbing Salt Lake Center
Mon 11:22:48 PM 47.1814 -113.7267 283° West 434 499 36,000  Level Salt Lake Center
Mon 11:23:49 PM 47.2128 -113.9328 283° West 431 496 36,000  Level Salt Lake Center
Mon 11:24:50 PM 47.2375 -114.1061 282° West 432 497 36,000  Level Salt Lake Center
Mon 11:25:52 PM 47.2647 -114.2764 283° West 429 494 36,000 -49 Level Salt Lake Center
Mon 11:26:53 PM 47.2892 -114.4494 282° West 430 495 35,900  Descending Salt Lake Center
Mon 11:27:54 PM 47.3147 -114.6211 282° West 428 493 36,000 49 Climbing Salt Lake Center
Mon 11:28:55 PM 47.3381 -114.7911 282° West 424 488 36,000 -48 Level Salt Lake Center
Mon 11:29:58 PM 47.3633 -114.9625 282° West 424 488 35,900  Descending Seattle Center
Mon 11:31:59 PM 47.4100 -115.3006 282° West 421 484 36,000 33 Climbing Salt Lake Center
Mon 11:33:00 PM 47.4339 -115.4706 282° West 423 487 36,000 -49 Level Salt Lake Center
Mon 11:34:01 PM 47.4558 -115.6408 281° West 423 487 35,900  Descending Salt Lake Center
Mon 11:35:02 PM 47.4672 -115.8133 276° West 424 488 36,000  Climbing Salt Lake Center
Mon 11:36:02 PM 47.4775 -115.9900 275° West 423 487 35,900  Descending Seattle Center
Mon 11:37:03 PM 47.4872 -116.1622 275° West 422 486 36,000  Climbing Seattle Center
Mon 11:38:04 PM 47.4975 -116.3322 275° West 418 481 35,900  Descending Seattle Center
Mon 11:39:05 PM 47.5069 -116.5042 275° West 421 484 36,000  Climbing Seattle Center
Mon 11:40:05 PM 47.5169 -116.6778 275° West 424 488 35,900  Descending Seattle Center
Mon 11:41:06 PM 47.5286 -116.8800 275° West 412 474 36,000 49 Climbing Seattle Center
Mon 11:42:07 PM 47.5364 -117.0392 274° West 403 464 36,000 -49 Level Seattle Center
Mon 11:43:08 PM 47.5442 -117.2017 274° West 399 459 35,900  Descending Seattle Center
Mon 11:44:08 PM 47.5514 -117.3478 274° West 395 455 36,000 50 Climbing Seattle Center
Mon 11:45:09 PM 47.5597 -117.5078 274° West 391 450 36,000  Level Seattle Center
Mon 11:46:10 PM 47.5686 -117.6744 275° West 402 463 36,000  Level Seattle Center
Mon 11:47:11 PM 47.5856 -117.8364 279° West 401 461 36,000 -50 Level Seattle Center
Mon 11:48:11 PM 47.6033 -118.0294 278° West 396 456 35,900  Descending Seattle Center
Mon 11:49:12 PM 47.6186 -118.1903 278° West 395 455 36,000 49 Climbing Seattle Center
Mon 11:50:13 PM 47.6333 -118.3511 278° West 394 453 36,000  Level Seattle Center
Mon 11:51:14 PM 47.6486 -118.5114 278° West 394 453 36,000  Level Seattle Center
Mon 11:52:14 PM 47.6622 -118.6739 277° West 396 456 36,000 -50 Level Seattle Center
Mon 11:53:15 PM 47.6753 -118.8328 277° West 392 451 35,900  Descending Seattle Center
Mon 11:54:16 PM 47.6892 -118.9928 277° West 391 450 36,000 49 Climbing Seattle Center
Mon 11:55:17 PM 47.7028 -119.1528 277° West 393 452 36,000  Level Seattle Center
Mon 11:56:17 PM 47.7167 -119.3119 277° West 390 449 36,000 -50 Level Seattle Center
Mon 11:57:18 PM 47.7283 -119.4725 276° West 392 451 35,900 -49 Descending Seattle Center
Mon 11:58:19 PM 47.7433 -119.6297 278° West 387 445 35,900 49 Level Seattle Center
Mon 11:59:20 PM 47.7536 -119.7883 276° West 388 447 36,000 50 Climbing Seattle Center
Tue 12:00:20 AM 47.7647 -119.9483 276° West 390 449 36,000  Level Seattle Center
Tue 12:01:21 AM 47.7781 -120.1072 277° West 388 447 36,000 -49 Level Seattle Center
Tue 12:02:22 AM 47.7883 -120.2664 276° West 388 447 35,900 -49 Descending Seattle Center
Tue 12:03:23 AM 47.8003 -120.4242 276° West 387 445 35,900 -198 Level Seattle Center
Tue 12:04:23 AM 47.8144 -120.6117 276° West 382 440 35,500 -1,537 Descending Seattle Center
Tue 12:05:24 AM 47.8247 -120.7667 276° West 379 436 32,800 -3,049 Descending Seattle Center
Tue 12:06:25 AM 47.8358 -120.9325 276° West 421 484 29,300 -3,541 Descending Seattle Center
Tue 12:07:26 AM 47.8494 -121.1097 277° West 434 499 25,600 -3,322 Descending Seattle Center
Tue 12:08:26 AM 47.8600 -121.2808 275° West 421 484 22,600 -2,826 Descending Seattle Center
Tue 12:09:27 AM 47.8703 -121.4433 275° West 403 464 19,900 -2,775 Descending Seattle Center
Tue 12:09:46 AM 47.8750 -121.5158 276° West 388 447 18,900 -1,475 Descending Seattle Center
Tue 12:10:28 AM 47.8803 -121.5989 275° West 385 443 18,400 -824 Descending Seattle Center
Tue 12:11:28 AM 47.8564 -121.7439 256° West 380 437 17,500 -1,190 Descending Seattle Center
Tue 12:12:29 AM 47.7803 -121.8481 223° Southwest 374 430 16,000 -2,262 Descending Seattle Center
Tue 12:13:30 AM 47.6947 -121.9628 222° Southwest 349 402 12,900 -2,489 Descending Seattle Center
Tue 12:14:44 AM 47.6131 -122.0739 223° Southwest 329 379 10,400 -1,488 Descending Seattle Center
Tue 12:15:31 AM 47.5597 -122.1428 221° Southwest 306 352 9,900 -1,111 Descending Seattle Center
Tue 12:16:32 AM 47.4886 -122.1761 198° South 294 338 8,400 -1,426 Descending Seattle Center
Tue 12:17:33 AM 47.4089 -122.1753 180° South 289 333 7,000 -1,388 Descending Seattle Center
Tue 12:18:33 AM 47.3317 -122.1742 179° South 281 323 5,600 -1,339 Descending Seattle Center
Tue 12:19:34 AM 47.2586 -122.1844 185° South 267 307 4,300 -885 Descending Seattle Center
Tue 12:20:35 AM 47.2439 -122.2519 252° West 220 253 3,800 -942 Descending Seattle Center
Tue 12:21:35 AM 47.2867 -122.3050 320° Northwest 198 228 2,400 -1,280 Descending Seattle Center
Tue 12:21:50 AM 47.2994 -122.3097 346° North 163 188 2,200 -197 Descending Seattle Center
Tue 12:22:36 AM 47.3242 -122.3089 North 142 163 2,200 -182 Level Seattle Center
Tue 12:22:56 AM 47.3417 -122.3094 359° North 126 145 2,000 -492 Descending Seattle Center
Tue 12:23:37 AM 47.3611 -122.3086 North 134 154 1,700 -627 Descending Seattle Center
Tue 12:24:03 AM 47.3819 -122.3103 357° North 132 152 1,300 -700 Descending Seattle Center
Tue 12:24:37 AM 47.3978 -122.3089 North 133 153 1,000 -689 Descending Seattle Center
Tue 12:25:04 AM 47.4194 -122.3092 360° North 135 155 600 -590 Descending Seattle Center
Tue 12:25:38 AM 47.4378 -122.3086 North 137 158 400 -353 Descending Seattle Center

Login

Don't have an account? Register now (free) for customized features, flight alerts, and more!